sensor_id;sensor_type;location;lat;lon;timestamp;P1;durP1;ratioP1;P2;durP2;ratioP2
67041;SDS011;53949;47.790;18.750;2023-07-13T00:02:20;6.50;;;3.77;;
67041;SDS011;53949;47.790;18.750;2023-07-13T00:05:23;8.00;;;3.60;;
67041;SDS011;53949;47.790;18.750;2023-07-13T00:08:29;4.72;;;3.00;;
67041;SDS011;53949;47.790;18.750;2023-07-13T00:11:33;5.43;;;2.90;;
67041;SDS011;53949;47.790;18.750;2023-07-13T00:14:37;4.25;;;2.87;;
67041;SDS011;53949;47.790;18.750;2023-07-13T00:17:40;13.07;;;3.30;;
67041;SDS011;53949;47.790;18.750;2023-07-13T00:20:43;4.97;;;2.75;;
67041;SDS011;53949;47.790;18.750;2023-07-13T00:23:47;8.98;;;3.33;;
67041;SDS011;53949;47.790;18.750;2023-07-13T00:26:51;3.50;;;2.25;;
67041;SDS011;53949;47.790;18.750;2023-07-13T00:29:55;6.97;;;2.57;;
67041;SDS011;53949;47.790;18.750;2023-07-13T00:32:58;5.07;;;2.80;;
67041;SDS011;53949;47.790;18.750;2023-07-13T00:36:19;4.10;;;2.67;;
67041;SDS011;53949;47.790;18.750;2023-07-13T00:39:23;5.20;;;3.50;;
67041;SDS011;53949;47.790;18.750;2023-07-13T00:42:26;3.83;;;3.12;;
67041;SDS011;53949;47.790;18.750;2023-07-13T00:48:33;4.67;;;3.27;;
67041;SDS011;53949;47.790;18.750;2023-07-13T00:54:48;4.53;;;2.50;;
67041;SDS011;53949;47.790;18.750;2023-07-13T00:57:51;4.95;;;3.40;;
67041;SDS011;53949;47.790;18.750;2023-07-13T01:00:54;3.22;;;2.47;;
67041;SDS011;53949;47.790;18.750;2023-07-13T01:03:58;5.72;;;2.37;;
67041;SDS011;53949;47.790;18.750;2023-07-13T01:07:02;3.20;;;2.80;;
67041;SDS011;53949;47.790;18.750;2023-07-13T01:10:05;4.65;;;2.85;;
67041;SDS011;53949;47.790;18.750;2023-07-13T01:13:10;4.90;;;2.72;;
67041;SDS011;53949;47.790;18.750;2023-07-13T01:16:24;6.55;;;2.70;;
67041;SDS011;53949;47.790;18.750;2023-07-13T01:22:40;4.93;;;3.08;;
67041;SDS011;53949;47.790;18.750;2023-07-13T01:25:43;5.87;;;3.30;;
67041;SDS011;53949;47.790;18.750;2023-07-13T01:28:47;7.80;;;3.80;;
67041;SDS011;53949;47.790;18.750;2023-07-13T01:31:50;6.68;;;3.25;;
67041;SDS011;53949;47.790;18.750;2023-07-13T01:34:53;4.32;;;3.15;;
67041;SDS011;53949;47.790;18.750;2023-07-13T01:37:57;3.47;;;2.72;;
67041;SDS011;53949;47.790;18.750;2023-07-13T01:41:03;7.78;;;3.15;;
67041;SDS011;53949;47.790;18.750;2023-07-13T01:44:06;9.20;;;3.00;;
67041;SDS011;53949;47.790;18.750;2023-07-13T01:47:10;4.62;;;3.00;;
67041;SDS011;53949;47.790;18.750;2023-07-13T01:50:14;6.50;;;2.67;;
67041;SDS011;53949;47.790;18.750;2023-07-13T01:53:18;6.40;;;2.90;;
67041;SDS011;53949;47.790;18.750;2023-07-13T01:56:21;6.45;;;2.80;;
67041;SDS011;53949;47.790;18.750;2023-07-13T01:59:25;5.35;;;2.85;;
67041;SDS011;53949;47.790;18.750;2023-07-13T02:02:28;8.97;;;3.30;;
67041;SDS011;53949;47.790;18.750;2023-07-13T02:05:32;3.08;;;2.78;;
67041;SDS011;53949;47.790;18.750;2023-07-13T02:08:35;4.65;;;2.78;;
67041;SDS011;53949;47.790;18.750;2023-07-13T02:11:40;7.35;;;3.37;;
67041;SDS011;53949;47.790;18.750;2023-07-13T02:14:43;5.55;;;3.30;;
67041;SDS011;53949;47.790;18.750;2023-07-13T02:17:47;5.68;;;3.35;;
67041;SDS011;53949;47.790;18.750;2023-07-13T02:20:50;4.97;;;3.05;;
67041;SDS011;53949;47.790;18.750;2023-07-13T02:23:53;5.32;;;2.67;;
67041;SDS011;53949;47.790;18.750;2023-07-13T02:26:57;7.22;;;3.20;;
67041;SDS011;53949;47.790;18.750;2023-07-13T02:30:01;4.57;;;3.08;;
67041;SDS011;53949;47.790;18.750;2023-07-13T02:33:05;7.70;;;3.37;;
67041;SDS011;53949;47.790;18.750;2023-07-13T02:36:09;6.43;;;3.10;;
67041;SDS011;53949;47.790;18.750;2023-07-13T02:39:13;9.35;;;3.35;;
67041;SDS011;53949;47.790;18.750;2023-07-13T02:42:17;7.75;;;3.78;;
67041;SDS011;53949;47.790;18.750;2023-07-13T02:45:21;6.03;;;2.42;;
67041;SDS011;53949;47.790;18.750;2023-07-13T02:48:26;5.53;;;2.72;;
67041;SDS011;53949;47.790;18.750;2023-07-13T02:51:29;7.10;;;2.70;;
67041;SDS011;53949;47.790;18.750;2023-07-13T02:54:33;6.35;;;2.55;;
67041;SDS011;53949;47.790;18.750;2023-07-13T02:57:36;5.05;;;3.10;;
67041;SDS011;53949;47.790;18.750;2023-07-13T03:00:40;11.10;;;3.65;;
67041;SDS011;53949;47.790;18.750;2023-07-13T03:03:45;16.75;;;3.92;;
67041;SDS011;53949;47.790;18.750;2023-07-13T03:06:49;5.37;;;2.95;;
67041;SDS011;53949;47.790;18.750;2023-07-13T03:09:56;6.62;;;3.17;;
67041;SDS011;53949;47.790;18.750;2023-07-13T03:13:01;8.32;;;3.00;;
67041;SDS011;53949;47.790;18.750;2023-07-13T03:16:05;3.72;;;2.92;;
67041;SDS011;53949;47.790;18.750;2023-07-13T03:19:09;4.57;;;2.95;;
67041;SDS011;53949;47.790;18.750;2023-07-13T03:22:12;5.80;;;3.10;;
67041;SDS011;53949;47.790;18.750;2023-07-13T03:25:16;4.75;;;2.80;;
67041;SDS011;53949;47.790;18.750;2023-07-13T03:28:19;3.15;;;2.83;;
67041;SDS011;53949;47.790;18.750;2023-07-13T03:31:26;7.10;;;2.90;;
67041;SDS011;53949;47.790;18.750;2023-07-13T03:34:34;6.32;;;2.70;;
67041;SDS011;53949;47.790;18.750;2023-07-13T03:37:38;3.43;;;3.13;;
67041;SDS011;53949;47.790;18.750;2023-07-13T03:40:46;5.10;;;3.17;;
67041;SDS011;53949;47.790;18.750;2023-07-13T03:43:50;5.32;;;3.20;;
67041;SDS011;53949;47.790;18.750;2023-07-13T03:46:54;5.20;;;3.30;;
67041;SDS011;53949;47.790;18.750;2023-07-13T03:49:58;5.80;;;3.20;;
67041;SDS011;53949;47.790;18.750;2023-07-13T03:53:01;6.40;;;2.92;;
67041;SDS011;53949;47.790;18.750;2023-07-13T03:56:05;8.57;;;3.80;;
67041;SDS011;53949;47.790;18.750;2023-07-13T03:59:09;5.47;;;3.40;;
67041;SDS011;53949;47.790;18.750;2023-07-13T04:02:13;4.72;;;3.40;;
67041;SDS011;53949;47.790;18.750;2023-07-13T04:05:18;6.07;;;3.47;;
67041;SDS011;53949;47.790;18.750;2023-07-13T04:08:22;5.68;;;3.30;;
67041;SDS011;53949;47.790;18.750;2023-07-13T04:11:29;6.70;;;3.50;;
67041;SDS011;53949;47.790;18.750;2023-07-13T04:14:34;5.85;;;3.87;;
67041;SDS011;53949;47.790;18.750;2023-07-13T04:17:38;5.37;;;3.03;;
67041;SDS011;53949;47.790;18.750;2023-07-13T04:20:42;4.62;;;3.30;;
67041;SDS011;53949;47.790;18.750;2023-07-13T04:23:45;5.53;;;2.92;;
67041;SDS011;53949;47.790;18.750;2023-07-13T04:26:49;9.75;;;3.30;;
67041;SDS011;53949;47.790;18.750;2023-07-13T04:29:52;6.62;;;3.70;;
67041;SDS011;53949;47.790;18.750;2023-07-13T04:32:56;9.73;;;3.60;;
67041;SDS011;53949;47.790;18.750;2023-07-13T04:35:59;8.27;;;4.20;;
67041;SDS011;53949;47.790;18.750;2023-07-13T04:42:09;9.60;;;4.32;;
67041;SDS011;53949;47.790;18.750;2023-07-13T04:45:14;8.15;;;3.90;;
67041;SDS011;53949;47.790;18.750;2023-07-13T04:48:19;10.80;;;4.05;;
67041;SDS011;53949;47.790;18.750;2023-07-13T04:51:24;13.88;;;4.45;;
67041;SDS011;53949;47.790;18.750;2023-07-13T04:54:29;11.27;;;4.55;;
67041;SDS011;53949;47.790;18.750;2023-07-13T04:57:32;8.30;;;4.68;;
67041;SDS011;53949;47.790;18.750;2023-07-13T05:00:36;10.60;;;4.57;;
67041;SDS011;53949;47.790;18.750;2023-07-13T05:03:39;11.27;;;4.50;;
67041;SDS011;53949;47.790;18.750;2023-07-13T05:06:43;7.75;;;5.10;;
67041;SDS011;53949;47.790;18.750;2023-07-13T05:09:47;11.90;;;4.97;;
67041;SDS011;53949;47.790;18.750;2023-07-13T05:15:55;8.10;;;4.70;;
67041;SDS011;53949;47.790;18.750;2023-07-13T05:19:04;8.13;;;5.30;;
67041;SDS011;53949;47.790;18.750;2023-07-13T05:22:08;5.15;;;4.32;;
67041;SDS011;53949;47.790;18.750;2023-07-13T05:25:13;8.23;;;4.15;;
67041;SDS011;53949;47.790;18.750;2023-07-13T05:28:17;5.60;;;4.20;;
67041;SDS011;53949;47.790;18.750;2023-07-13T05:31:22;4.90;;;3.40;;
67041;SDS011;53949;47.790;18.750;2023-07-13T05:34:25;7.20;;;3.72;;
67041;SDS011;53949;47.790;18.750;2023-07-13T05:37:29;10.47;;;3.60;;
67041;SDS011;53949;47.790;18.750;2023-07-13T05:40:33;7.43;;;3.20;;
67041;SDS011;53949;47.790;18.750;2023-07-13T05:43:37;5.28;;;3.58;;
67041;SDS011;53949;47.790;18.750;2023-07-13T05:46:40;4.35;;;2.85;;
67041;SDS011;53949;47.790;18.750;2023-07-13T05:49:45;6.28;;;3.25;;
67041;SDS011;53949;47.790;18.750;2023-07-13T05:52:49;5.47;;;3.10;;
67041;SDS011;53949;47.790;18.750;2023-07-13T05:55:53;7.47;;;3.62;;
67041;SDS011;53949;47.790;18.750;2023-07-13T05:58:57;5.55;;;3.20;;
67041;SDS011;53949;47.790;18.750;2023-07-13T06:02:00;4.55;;;3.45;;
67041;SDS011;53949;47.790;18.750;2023-07-13T06:05:04;8.23;;;3.20;;
67041;SDS011;53949;47.790;18.750;2023-07-13T06:08:07;3.70;;;2.83;;
67041;SDS011;53949;47.790;18.750;2023-07-13T06:11:18;8.38;;;3.30;;
67041;SDS011;53949;47.790;18.750;2023-07-13T06:14:23;6.50;;;3.00;;
67041;SDS011;53949;47.790;18.750;2023-07-13T06:17:26;9.20;;;3.53;;
67041;SDS011;53949;47.790;18.750;2023-07-13T06:20:29;3.15;;;2.50;;
67041;SDS011;53949;47.790;18.750;2023-07-13T06:23:33;4.55;;;2.58;;
67041;SDS011;53949;47.790;18.750;2023-07-13T06:26:37;5.55;;;2.78;;
67041;SDS011;53949;47.790;18.750;2023-07-13T06:29:41;2.45;;;2.12;;
67041;SDS011;53949;47.790;18.750;2023-07-13T06:32:49;3.20;;;2.10;;
67041;SDS011;53949;47.790;18.750;2023-07-13T06:35:52;2.35;;;1.87;;
67041;SDS011;53949;47.790;18.750;2023-07-13T06:39:00;2.95;;;1.90;;
67041;SDS011;53949;47.790;18.750;2023-07-13T06:42:05;2.90;;;2.25;;
67041;SDS011;53949;47.790;18.750;2023-07-13T06:45:08;1.87;;;1.65;;
67041;SDS011;53949;47.790;18.750;2023-07-13T06:48:13;2.85;;;2.08;;
67041;SDS011;53949;47.790;18.750;2023-07-13T06:51:18;4.65;;;1.83;;
67041;SDS011;53949;47.790;18.750;2023-07-13T06:54:21;2.15;;;1.87;;
67041;SDS011;53949;47.790;18.750;2023-07-13T06:57:25;3.75;;;2.03;;
67041;SDS011;53949;47.790;18.750;2023-07-13T07:00:29;2.50;;;1.80;;
67041;SDS011;53949;47.790;18.750;2023-07-13T07:03:32;3.35;;;2.15;;
67041;SDS011;53949;47.790;18.750;2023-07-13T07:06:37;2.15;;;1.98;;
67041;SDS011;53949;47.790;18.750;2023-07-13T07:09:41;4.03;;;2.40;;
67041;SDS011;53949;47.790;18.750;2023-07-13T07:12:45;2.80;;;2.60;;
67041;SDS011;53949;47.790;18.750;2023-07-13T07:15:49;3.70;;;2.30;;
67041;SDS011;53949;47.790;18.750;2023-07-13T07:21:56;4.10;;;2.33;;
67041;SDS011;53949;47.790;18.750;2023-07-13T07:25:00;5.65;;;2.10;;
67041;SDS011;53949;47.790;18.750;2023-07-13T07:28:03;3.10;;;1.90;;
67041;SDS011;53949;47.790;18.750;2023-07-13T07:31:09;3.25;;;2.17;;
67041;SDS011;53949;47.790;18.750;2023-07-13T07:34:16;4.15;;;2.22;;
67041;SDS011;53949;47.790;18.750;2023-07-13T07:37:19;2.40;;;1.95;;
67041;SDS011;53949;47.790;18.750;2023-07-13T07:40:31;2.58;;;2.22;;
67041;SDS011;53949;47.790;18.750;2023-07-13T07:43:41;2.95;;;2.08;;
67041;SDS011;53949;47.790;18.750;2023-07-13T07:46:44;2.90;;;1.92;;
67041;SDS011;53949;47.790;18.750;2023-07-13T07:49:48;2.67;;;2.03;;
67041;SDS011;53949;47.790;18.750;2023-07-13T07:52:51;3.12;;;2.12;;
67041;SDS011;53949;47.790;18.750;2023-07-13T07:55:55;6.17;;;2.73;;
67041;SDS011;53949;47.790;18.750;2023-07-13T07:59:01;4.28;;;2.20;;
67041;SDS011;53949;47.790;18.750;2023-07-13T08:02:08;3.58;;;2.45;;
67041;SDS011;53949;47.790;18.750;2023-07-13T08:05:35;3.50;;;2.10;;
67041;SDS011;53949;47.790;18.750;2023-07-13T08:09:00;2.22;;;2.00;;
67041;SDS011;53949;47.790;18.750;2023-07-13T08:15:12;2.20;;;2.00;;
67041;SDS011;53949;47.790;18.750;2023-07-13T08:18:16;4.37;;;2.35;;
67041;SDS011;53949;47.790;18.750;2023-07-13T08:21:20;5.82;;;2.67;;
67041;SDS011;53949;47.790;18.750;2023-07-13T08:24:23;3.22;;;2.65;;
67041;SDS011;53949;47.790;18.750;2023-07-13T08:27:27;4.35;;;2.37;;
67041;SDS011;53949;47.790;18.750;2023-07-13T08:30:31;5.28;;;2.50;;
67041;SDS011;53949;47.790;18.750;2023-07-13T08:33:35;2.80;;;2.45;;
67041;SDS011;53949;47.790;18.750;2023-07-13T08:39:42;2.78;;;2.58;;
67041;SDS011;53949;47.790;18.750;2023-07-13T08:42:46;4.45;;;2.15;;
67041;SDS011;53949;47.790;18.750;2023-07-13T08:45:59;3.37;;;2.55;;
67041;SDS011;53949;47.790;18.750;2023-07-13T08:49:16;2.87;;;2.40;;
67041;SDS011;53949;47.790;18.750;2023-07-13T08:52:27;6.37;;;2.50;;
67041;SDS011;53949;47.790;18.750;2023-07-13T08:55:37;3.58;;;2.72;;
67041;SDS011;53949;47.790;18.750;2023-07-13T08:58:42;2.90;;;2.33;;
67041;SDS011;53949;47.790;18.750;2023-07-13T09:01:52;3.55;;;2.83;;
67041;SDS011;53949;47.790;18.750;2023-07-13T09:05:03;2.72;;;2.53;;
67041;SDS011;53949;47.790;18.750;2023-07-13T09:12:09;3.85;;;2.80;;
67041;SDS011;53949;47.790;18.750;2023-07-13T09:15:31;4.57;;;2.78;;
67041;SDS011;53949;47.790;18.750;2023-07-13T09:18:40;4.05;;;2.97;;
67041;SDS011;53949;47.790;18.750;2023-07-13T09:21:45;5.60;;;3.15;;
67041;SDS011;53949;47.790;18.750;2023-07-13T09:24:53;3.22;;;2.80;;
67041;SDS011;53949;47.790;18.750;2023-07-13T09:28:15;3.42;;;2.90;;
67041;SDS011;53949;47.790;18.750;2023-07-13T09:34:38;7.65;;;3.05;;
67041;SDS011;53949;47.790;18.750;2023-07-13T09:37:42;3.20;;;2.60;;
67041;SDS011;53949;47.790;18.750;2023-07-13T09:47:20;2.83;;;2.62;;
67041;SDS011;53949;47.790;18.750;2023-07-13T09:50:29;3.50;;;2.90;;
67041;SDS011;53949;47.790;18.750;2023-07-13T09:53:34;3.80;;;2.90;;
67041;SDS011;53949;47.790;18.750;2023-07-13T09:56:38;3.12;;;2.83;;
67041;SDS011;53949;47.790;18.750;2023-07-13T09:59:46;3.50;;;2.37;;
67041;SDS011;53949;47.790;18.750;2023-07-13T10:03:01;3.65;;;2.45;;
67041;SDS011;53949;47.790;18.750;2023-07-13T10:06:17;3.85;;;2.65;;
67041;SDS011;53949;47.790;18.750;2023-07-13T10:09:21;3.33;;;2.85;;
67041;SDS011;53949;47.790;18.750;2023-07-13T10:12:25;6.57;;;2.80;;
67041;SDS011;53949;47.790;18.750;2023-07-13T10:15:28;3.83;;;2.73;;
67041;SDS011;53949;47.790;18.750;2023-07-13T10:18:40;3.17;;;2.87;;
67041;SDS011;53949;47.790;18.750;2023-07-13T10:25:01;6.20;;;3.05;;
67041;SDS011;53949;47.790;18.750;2023-07-13T10:31:22;3.85;;;3.30;;
67041;SDS011;53949;47.790;18.750;2023-07-13T10:34:26;4.60;;;3.00;;
67041;SDS011;53949;47.790;18.750;2023-07-13T10:37:33;3.17;;;2.90;;
67041;SDS011;53949;47.790;18.750;2023-07-13T10:43:51;4.85;;;2.80;;
67041;SDS011;53949;47.790;18.750;2023-07-13T10:47:15;3.08;;;2.78;;
67041;SDS011;53949;47.790;18.750;2023-07-13T10:50:24;2.67;;;2.47;;
67041;SDS011;53949;47.790;18.750;2023-07-13T10:53:31;5.25;;;3.20;;
67041;SDS011;53949;47.790;18.750;2023-07-13T10:56:35;5.80;;;3.03;;
67041;SDS011;53949;47.790;18.750;2023-07-13T10:59:38;2.92;;;2.62;;
67041;SDS011;53949;47.790;18.750;2023-07-13T11:02:48;3.65;;;2.62;;
67041;SDS011;53949;47.790;18.750;2023-07-13T11:06:11;2.75;;;2.53;;
67041;SDS011;53949;47.790;18.750;2023-07-13T11:15:51;3.75;;;2.80;;
67041;SDS011;53949;47.790;18.750;2023-07-13T11:22:12;3.72;;;2.60;;
67041;SDS011;53949;47.790;18.750;2023-07-13T11:28:32;2.67;;;2.47;;
67041;SDS011;53949;47.790;18.750;2023-07-13T11:31:35;2.65;;;2.42;;
67041;SDS011;53949;47.790;18.750;2023-07-13T11:37:42;4.37;;;2.58;;
67041;SDS011;53949;47.790;18.750;2023-07-13T11:40:48;2.90;;;2.70;;
67041;SDS011;53949;47.790;18.750;2023-07-13T11:44:11;3.00;;;2.62;;
67041;SDS011;53949;47.790;18.750;2023-07-13T11:47:21;3.40;;;2.53;;
67041;SDS011;53949;47.790;18.750;2023-07-13T11:50:25;3.90;;;2.90;;
67041;SDS011;53949;47.790;18.750;2023-07-13T11:53:50;4.57;;;2.78;;
67041;SDS011;53949;47.790;18.750;2023-07-13T11:56:57;3.10;;;2.40;;
67041;SDS011;53949;47.790;18.750;2023-07-13T12:00:09;3.22;;;2.90;;
67041;SDS011;53949;47.790;18.750;2023-07-13T12:03:18;2.93;;;2.50;;
67041;SDS011;53949;47.790;18.750;2023-07-13T12:06:31;5.47;;;2.75;;
67041;SDS011;53949;47.790;18.750;2023-07-13T12:09:36;3.15;;;2.92;;
67041;SDS011;53949;47.790;18.750;2023-07-13T12:12:40;5.32;;;3.20;;
67041;SDS011;53949;47.790;18.750;2023-07-13T12:15:51;4.87;;;2.78;;
67041;SDS011;53949;47.790;18.750;2023-07-13T12:18:55;4.28;;;2.97;;
67041;SDS011;53949;47.790;18.750;2023-07-13T12:21:59;5.43;;;2.78;;
67041;SDS011;53949;47.790;18.750;2023-07-13T12:25:02;2.80;;;2.50;;
67041;SDS011;53949;47.790;18.750;2023-07-13T12:28:21;7.45;;;2.45;;
67041;SDS011;53949;47.790;18.750;2023-07-13T12:31:30;2.87;;;2.53;;
67041;SDS011;53949;47.790;18.750;2023-07-13T12:34:49;2.67;;;2.47;;
67041;SDS011;53949;47.790;18.750;2023-07-13T12:37:54;3.20;;;2.60;;
67041;SDS011;53949;47.790;18.750;2023-07-13T12:41:01;3.75;;;2.53;;
67041;SDS011;53949;47.790;18.750;2023-07-13T12:44:07;2.80;;;2.28;;
67041;SDS011;53949;47.790;18.750;2023-07-13T12:47:15;2.72;;;2.53;;
67041;SDS011;53949;47.790;18.750;2023-07-13T12:53:30;6.53;;;2.80;;
67041;SDS011;53949;47.790;18.750;2023-07-13T12:56:36;2.85;;;2.40;;
67041;SDS011;53949;47.790;18.750;2023-07-13T12:59:39;4.03;;;2.60;;
67041;SDS011;53949;47.790;18.750;2023-07-13T13:02:44;4.57;;;2.50;;
67041;SDS011;53949;47.790;18.750;2023-07-13T13:08:53;4.28;;;2.30;;
67041;SDS011;53949;47.790;18.750;2023-07-13T13:11:57;3.78;;;2.70;;
67041;SDS011;53949;47.790;18.750;2023-07-13T13:15:01;5.35;;;2.15;;
67041;SDS011;53949;47.790;18.750;2023-07-13T13:18:09;3.35;;;2.25;;
67041;SDS011;53949;47.790;18.750;2023-07-13T13:21:18;4.10;;;2.30;;
67041;SDS011;53949;47.790;18.750;2023-07-13T13:24:24;4.80;;;2.50;;
67041;SDS011;53949;47.790;18.750;2023-07-13T13:27:29;3.05;;;2.40;;
67041;SDS011;53949;47.790;18.750;2023-07-13T13:30:33;4.53;;;2.15;;
67041;SDS011;53949;47.790;18.750;2023-07-13T13:33:36;2.33;;;2.12;;
67041;SDS011;53949;47.790;18.750;2023-07-13T13:36:41;4.40;;;2.50;;
67041;SDS011;53949;47.790;18.750;2023-07-13T13:39:45;2.22;;;2.03;;
67041;SDS011;53949;47.790;18.750;2023-07-13T13:43:29;1.85;;;1.75;;
67041;SDS011;53949;47.790;18.750;2023-07-13T13:46:32;2.17;;;2.00;;
67041;SDS011;53949;47.790;18.750;2023-07-13T13:49:35;3.90;;;2.35;;
67041;SDS011;53949;47.790;18.750;2023-07-13T13:52:38;2.55;;;2.35;;
67041;SDS011;53949;47.790;18.750;2023-07-13T13:55:43;3.58;;;1.75;;
67041;SDS011;53949;47.790;18.750;2023-07-13T13:58:46;2.00;;;1.90;;
67041;SDS011;53949;47.790;18.750;2023-07-13T14:01:49;2.62;;;2.10;;
67041;SDS011;53949;47.790;18.750;2023-07-13T14:04:54;2.15;;;1.98;;
67041;SDS011;53949;47.790;18.750;2023-07-13T14:08:00;2.50;;;2.30;;
67041;SDS011;53949;47.790;18.750;2023-07-13T14:11:03;4.57;;;2.35;;
67041;SDS011;53949;47.790;18.750;2023-07-13T14:14:08;5.93;;;2.33;;
67041;SDS011;53949;47.790;18.750;2023-07-13T14:17:21;3.40;;;2.65;;
67041;SDS011;53949;47.790;18.750;2023-07-13T14:20:26;2.42;;;2.20;;
67041;SDS011;53949;47.790;18.750;2023-07-13T14:23:31;2.83;;;2.60;;
67041;SDS011;53949;47.790;18.750;2023-07-13T14:26:38;2.20;;;2.00;;
67041;SDS011;53949;47.790;18.750;2023-07-13T14:29:43;4.20;;;2.42;;
67041;SDS011;53949;47.790;18.750;2023-07-13T14:32:47;2.70;;;2.35;;
67041;SDS011;53949;47.790;18.750;2023-07-13T14:35:52;9.77;;;2.80;;
67041;SDS011;53949;47.790;18.750;2023-07-13T14:38:56;2.40;;;2.20;;
67041;SDS011;53949;47.790;18.750;2023-07-13T14:42:01;4.47;;;2.55;;
67041;SDS011;53949;47.790;18.750;2023-07-13T14:45:12;3.00;;;2.20;;
67041;SDS011;53949;47.790;18.750;2023-07-13T14:48:22;4.90;;;2.30;;
67041;SDS011;53949;47.790;18.750;2023-07-13T14:51:27;3.25;;;2.33;;
67041;SDS011;53949;47.790;18.750;2023-07-13T14:57:34;4.15;;;2.60;;
67041;SDS011;53949;47.790;18.750;2023-07-13T15:00:38;3.45;;;2.70;;
67041;SDS011;53949;47.790;18.750;2023-07-13T15:03:44;3.17;;;2.30;;
67041;SDS011;53949;47.790;18.750;2023-07-13T15:06:58;2.60;;;2.40;;
67041;SDS011;53949;47.790;18.750;2023-07-13T15:10:11;3.97;;;2.30;;
67041;SDS011;53949;47.790;18.750;2023-07-13T15:13:20;4.43;;;2.28;;
67041;SDS011;53949;47.790;18.750;2023-07-13T15:16:28;3.85;;;2.40;;
67041;SDS011;53949;47.790;18.750;2023-07-13T15:19:33;5.15;;;2.42;;
67041;SDS011;53949;47.790;18.750;2023-07-13T15:22:37;2.58;;;2.37;;
67041;SDS011;53949;47.790;18.750;2023-07-13T15:25:43;2.72;;;2.17;;
67041;SDS011;53949;47.790;18.750;2023-07-13T15:28:48;3.65;;;2.40;;
67041;SDS011;53949;47.790;18.750;2023-07-13T15:31:53;2.53;;;1.95;;
67041;SDS011;53949;47.790;18.750;2023-07-13T15:34:57;2.47;;;2.28;;
67041;SDS011;53949;47.790;18.750;2023-07-13T15:38:09;2.72;;;2.20;;
67041;SDS011;53949;47.790;18.750;2023-07-13T15:41:25;2.40;;;2.00;;
67041;SDS011;53949;47.790;18.750;2023-07-13T15:44:31;3.72;;;2.22;;
67041;SDS011;53949;47.790;18.750;2023-07-13T15:47:34;3.30;;;2.03;;
67041;SDS011;53949;47.790;18.750;2023-07-13T15:50:48;2.42;;;2.30;;
67041;SDS011;53949;47.790;18.750;2023-07-13T15:53:56;2.67;;;2.28;;
67041;SDS011;53949;47.790;18.750;2023-07-13T15:57:02;3.50;;;2.47;;
67041;SDS011;53949;47.790;18.750;2023-07-13T16:00:13;2.62;;;2.00;;
67041;SDS011;53949;47.790;18.750;2023-07-13T16:03:20;2.45;;;2.25;;
67041;SDS011;53949;47.790;18.750;2023-07-13T16:06:27;2.10;;;1.90;;
67041;SDS011;53949;47.790;18.750;2023-07-13T16:09:32;4.32;;;2.67;;
67041;SDS011;53949;47.790;18.750;2023-07-13T16:12:37;2.62;;;2.42;;
67041;SDS011;53949;47.790;18.750;2023-07-13T16:15:44;3.17;;;2.00;;
67041;SDS011;53949;47.790;18.750;2023-07-13T16:18:49;2.10;;;1.90;;
67041;SDS011;53949;47.790;18.750;2023-07-13T16:24:56;4.25;;;2.65;;
67041;SDS011;53949;47.790;18.750;2023-07-13T16:28:01;2.12;;;1.92;;
67041;SDS011;53949;47.790;18.750;2023-07-13T16:31:04;2.33;;;1.62;;
67041;SDS011;53949;47.790;18.750;2023-07-13T16:34:08;3.15;;;1.62;;
67041;SDS011;53949;47.790;18.750;2023-07-13T16:37:16;4.00;;;1.90;;
67041;SDS011;53949;47.790;18.750;2023-07-13T16:40:26;1.48;;;1.33;;
67041;SDS011;53949;47.790;18.750;2023-07-13T16:43:35;1.50;;;1.40;;
67041;SDS011;53949;47.790;18.750;2023-07-13T16:46:45;2.20;;;1.50;;
67041;SDS011;53949;47.790;18.750;2023-07-13T16:49:59;1.15;;;1.10;;
67041;SDS011;53949;47.790;18.750;2023-07-13T16:53:20;1.35;;;1.25;;
67041;SDS011;53949;47.790;18.750;2023-07-13T16:56:25;1.75;;;1.33;;
67041;SDS011;53949;47.790;18.750;2023-07-13T16:59:30;1.55;;;1.45;;
67041;SDS011;53949;47.790;18.750;2023-07-13T17:02:38;1.60;;;1.50;;
67041;SDS011;53949;47.790;18.750;2023-07-13T17:05:44;3.33;;;1.37;;
67041;SDS011;53949;47.790;18.750;2023-07-13T17:08:49;4.25;;;1.90;;
67041;SDS011;53949;47.790;18.750;2023-07-13T17:11:58;1.50;;;1.40;;
67041;SDS011;53949;47.790;18.750;2023-07-13T17:15:04;3.47;;;1.42;;
67041;SDS011;53949;47.790;18.750;2023-07-13T17:18:13;3.08;;;1.87;;
67041;SDS011;53949;47.790;18.750;2023-07-13T17:21:18;2.60;;;1.50;;
67041;SDS011;53949;47.790;18.750;2023-07-13T17:24:26;2.37;;;1.52;;
67041;SDS011;53949;47.790;18.750;2023-07-13T17:27:30;2.22;;;1.55;;
67041;SDS011;53949;47.790;18.750;2023-07-13T17:30:40;3.55;;;1.80;;
67041;SDS011;53949;47.790;18.750;2023-07-13T17:33:45;2.47;;;1.70;;
67041;SDS011;53949;47.790;18.750;2023-07-13T17:36:50;1.83;;;1.50;;
67041;SDS011;53949;47.790;18.750;2023-07-13T17:39:53;2.45;;;2.00;;
67041;SDS011;53949;47.790;18.750;2023-07-13T17:42:58;3.50;;;2.10;;
67041;SDS011;53949;47.790;18.750;2023-07-13T17:49:29;9.40;;;6.70;;
67041;SDS011;53949;47.790;18.750;2023-07-13T17:52:37;5.10;;;4.62;;
67041;SDS011;53949;47.790;18.750;2023-07-13T17:55:42;3.28;;;2.47;;
67041;SDS011;53949;47.790;18.750;2023-07-13T17:58:46;1.92;;;1.73;;
67041;SDS011;53949;47.790;18.750;2023-07-13T18:01:50;2.33;;;2.00;;
67041;SDS011;53949;47.790;18.750;2023-07-13T18:04:56;3.22;;;2.20;;
67041;SDS011;53949;47.790;18.750;2023-07-13T18:08:01;2.55;;;2.03;;
67041;SDS011;53949;47.790;18.750;2023-07-13T18:11:08;2.17;;;1.85;;
67041;SDS011;53949;47.790;18.750;2023-07-13T18:14:14;2.75;;;1.83;;
67041;SDS011;53949;47.790;18.750;2023-07-13T18:17:20;2.15;;;1.95;;
67041;SDS011;53949;47.790;18.750;2023-07-13T18:20:25;4.68;;;2.35;;
67041;SDS011;53949;47.790;18.750;2023-07-13T18:23:29;2.70;;;2.50;;
67041;SDS011;53949;47.790;18.750;2023-07-13T18:26:37;3.47;;;2.15;;
67041;SDS011;53949;47.790;18.750;2023-07-13T18:29:44;3.28;;;2.20;;
67041;SDS011;53949;47.790;18.750;2023-07-13T18:36:01;5.85;;;2.10;;
67041;SDS011;53949;47.790;18.750;2023-07-13T18:39:09;3.55;;;2.00;;
67041;SDS011;53949;47.790;18.750;2023-07-13T18:42:16;2.28;;;1.87;;
67041;SDS011;53949;47.790;18.750;2023-07-13T18:45:22;2.95;;;1.90;;
67041;SDS011;53949;47.790;18.750;2023-07-13T18:48:27;3.70;;;2.05;;
67041;SDS011;53949;47.790;18.750;2023-07-13T18:51:35;3.20;;;1.90;;
67041;SDS011;53949;47.790;18.750;2023-07-13T18:54:39;2.92;;;1.83;;
67041;SDS011;53949;47.790;18.750;2023-07-13T18:57:44;2.00;;;1.85;;
67041;SDS011;53949;47.790;18.750;2023-07-13T19:00:50;4.60;;;1.70;;
67041;SDS011;53949;47.790;18.750;2023-07-13T19:04:47;2.47;;;1.48;;
67041;SDS011;53949;47.790;18.750;2023-07-13T19:07:29;3.05;;;1.55;;
67041;SDS011;53949;47.790;18.750;2023-07-13T19:10:34;5.07;;;1.85;;
67041;SDS011;53949;47.790;18.750;2023-07-13T19:13:39;2.75;;;1.70;;
67041;SDS011;53949;47.790;18.750;2023-07-13T19:16:43;1.80;;;1.70;;
67041;SDS011;53949;47.790;18.750;2023-07-13T19:19:47;1.87;;;1.67;;
67041;SDS011;53949;47.790;18.750;2023-07-13T19:22:53;2.83;;;1.45;;
67041;SDS011;53949;47.790;18.750;2023-07-13T19:26:21;1.70;;;1.60;;
67041;SDS011;53949;47.790;18.750;2023-07-13T19:29:27;1.75;;;1.65;;
67041;SDS011;53949;47.790;18.750;2023-07-13T19:32:34;3.70;;;2.10;;
67041;SDS011;53949;47.790;18.750;2023-07-13T19:35:38;2.78;;;1.83;;
67041;SDS011;53949;47.790;18.750;2023-07-13T19:38:43;3.83;;;1.80;;
67041;SDS011;53949;47.790;18.750;2023-07-13T19:41:48;2.10;;;1.90;;
67041;SDS011;53949;47.790;18.750;2023-07-13T19:44:56;4.03;;;3.30;;
67041;SDS011;53949;47.790;18.750;2023-07-13T19:48:01;3.50;;;2.00;;